• Join FlightAware (Why Join?)
  • Login
  • US Flag 
02:38AM EDT


 

Airport Tracker/Info


-or-


 

Live Flight TrackerFlight Track Log ✈ UAL5942 ✈ 23-Apr-2013 ✈ KRDU - KIAD

Flight Track Log - Related Links

Times and Time Zones

All times are in EDT time to prevent confusion due to time zone crossing. See the UAL5942 flight status page for this flight to view local times or setup timezone preferences in your user account.

Time Position Orientation Groundspeed Altitude Reporting Facility
EDT Latitude Longitude Course Direction KTS MPH feet Rate Location/Type
07:54PM 35.8967 -78.7767 15° North 170 196 1,200  Level Washington Center
07:55PM 35.9497 -78.7403 29° Northeast 236 272 3,300 2,340 Climbing Washington Center
07:56PM 36.0214 -78.7150 16° North 265 305 5,900 2,820 Climbing Washington Center
07:57PM 36.1703 -78.6675 19° North  Level FlightAware Approximate
07:57PM 36.0931 -78.6919 15° North 273 314 9,000  Level Washington Center
07:58PM 36.2460 -78.6351 19° North  Level FlightAware Approximate
07:58PM 36.1583 -78.6689 16° North 279 321 11,500  Level Washington Center
07:59PM 36.3232 -78.6089 15° North  Level FlightAware Approximate
07:59PM 36.2550 -78.6417 13° North 294 338 12,000  Level Washington Center
08:00PM 36.3433 -78.6142 14° North 345 397 13,900 2,160 Climbing Washington Center
08:01PM 36.4483 -78.5822 14° North 359 413 16,400 1,980 Climbing Washington Center
08:02PM 36.5453 -78.5469 16° North 353 406 17,900 1,380 Climbing Washington Center
08:03PM 36.6442 -78.5094 17° North 359 413 19,200 1,020 Climbing Washington Center
08:04PM 36.7453 -78.4717 17° North 370 426 20,000 360 Climbing Washington Center
08:05PM 36.8411 -78.3947 33° Northeast 377 434 20,000  Level Washington Center
08:06PM 36.9389 -78.3178 32° Northeast 400 460 20,000  Level Washington Center
08:07PM 37.0300 -78.2431 33° Northeast 406 467 20,000  Level Washington Center
08:08PM 37.1131 -78.1731 34° Northeast 401 461 20,000  Level Washington Center
08:09PM 37.2106 -78.0928 33° Northeast 393 452 20,000  Level Washington Center
08:10PM 37.2997 -78.0200 33° Northeast 381 438 20,000  Level Washington Center
08:11PM 37.3889 -77.9469 33° Northeast 381 438 20,000  Level Washington Center
08:12PM 37.4800 -77.8714 33° Northeast 381 438 20,000 -600 Level Washington Center
08:13PM 37.5731 -77.8006 31° Northeast 381 438 18,900 -1,440 Descending Washington Center
08:14PM 37.6722 -77.7406 26° Northeast 381 438 17,200 -1,800 Descending Washington Center
08:15PM 37.7711 -77.6883 23° Northeast 381 438 15,400 -1,500 Descending Washington Center
08:16PM 37.8681 -77.6303 25° Northeast 381 438 14,200 -1,200 Descending Washington Center
08:17PM 37.9631 -77.5725 26° Northeast 381 438 13,100 -1,020 Descending Washington Center
08:18PM 38.0469 -77.5297 22° Northeast 376 433 12,200 -1,260 Descending Washington Center
08:19PM 38.1397 -77.4742 25° Northeast 344 396 10,600 -1,140 Descending Washington Center
08:20PM 38.2114 -77.4308 25° Northeast 303 349 10,000 -300 Descending Washington Center
08:21PM 38.2861 -77.4461 351° North 265 305 10,000 -300 Level Washington Center
08:22PM 38.3611 -77.4506 357° North 260 299 9,400 -840 Descending Washington Center
08:23PM 38.4342 -77.4469 North 260 299 8,400 -960 Descending Washington Center
08:24PM 38.5092 -77.4464 360° North 260 299 7,500 -1,140 Descending Washington Center
08:25PM 38.5822 -77.4456 North 260 299 6,200 -1,380 Descending Washington Center
08:26PM 38.6531 -77.4419 North 255 293 4,800 -1,440 Descending Washington Center
08:26PM 38.7000 -77.4333 North 251 289 4,000 -1,200 Descending Potomac TRACON
08:27PM 38.7500 -77.4333 360° North 232 267 3,100 -840 Descending Potomac TRACON
08:28PM 38.8167 -77.4333 360° North 218 251 2,400 -780 Descending Potomac TRACON
08:29PM 38.8667 -77.4333 360° North 165 190 1,500 -900 Descending Potomac TRACON
08:30PM 38.9000 -77.4333 360° North 139 160 700 -900 Descending Potomac TRACON
08:32PM 38.9474 -77.4599 North  Level Estimated